sensor_id;sensor_type;location;lat;lon;timestamp;P1;durP1;ratioP1;P2;durP2;ratioP2
72060;SDS011;59925;52.136;5.420;2022-10-31T00:00:47;10.18;;;4.65;;
72060;SDS011;59925;52.136;5.420;2022-10-31T00:03:14;10.40;;;4.78;;
72060;SDS011;59925;52.136;5.420;2022-10-31T00:05:46;9.30;;;4.57;;
72060;SDS011;59925;52.136;5.420;2022-10-31T00:08:15;13.05;;;5.32;;
72060;SDS011;59925;52.136;5.420;2022-10-31T00:10:43;12.93;;;5.77;;
72060;SDS011;59925;52.136;5.420;2022-10-31T00:13:11;12.15;;;5.50;;
72060;SDS011;59925;52.136;5.420;2022-10-31T00:15:39;13.90;;;5.50;;
72060;SDS011;59925;52.136;5.420;2022-10-31T00:18:07;9.45;;;5.47;;
72060;SDS011;59925;52.136;5.420;2022-10-31T00:20:34;12.30;;;5.25;;
72060;SDS011;59925;52.136;5.420;2022-10-31T00:23:01;12.47;;;6.03;;
72060;SDS011;59925;52.136;5.420;2022-10-31T00:25:29;13.15;;;5.90;;
72060;SDS011;59925;52.136;5.420;2022-10-31T00:28:00;10.65;;;5.22;;
72060;SDS011;59925;52.136;5.420;2022-10-31T00:30:27;11.60;;;6.03;;
72060;SDS011;59925;52.136;5.420;2022-10-31T00:32:54;15.35;;;5.85;;
72060;SDS011;59925;52.136;5.420;2022-10-31T00:35:20;10.77;;;5.63;;
72060;SDS011;59925;52.136;5.420;2022-10-31T00:37:46;15.05;;;6.13;;
72060;SDS011;59925;52.136;5.420;2022-10-31T00:40:13;9.52;;;5.60;;
72060;SDS011;59925;52.136;5.420;2022-10-31T00:42:40;13.77;;;6.68;;
72060;SDS011;59925;52.136;5.420;2022-10-31T00:45:08;12.45;;;6.10;;
72060;SDS011;59925;52.136;5.420;2022-10-31T00:47:35;14.37;;;6.07;;
72060;SDS011;59925;52.136;5.420;2022-10-31T00:50:02;10.02;;;6.30;;
72060;SDS011;59925;52.136;5.420;2022-10-31T00:52:30;10.30;;;6.10;;
72060;SDS011;59925;52.136;5.420;2022-10-31T00:54:56;11.65;;;6.28;;
72060;SDS011;59925;52.136;5.420;2022-10-31T00:57:22;11.15;;;5.80;;
72060;SDS011;59925;52.136;5.420;2022-10-31T00:59:49;9.93;;;5.77;;
72060;SDS011;59925;52.136;5.420;2022-10-31T01:02:15;13.65;;;6.20;;
72060;SDS011;59925;52.136;5.420;2022-10-31T01:04:42;13.52;;;6.00;;
72060;SDS011;59925;52.136;5.420;2022-10-31T01:07:08;11.48;;;6.50;;
72060;SDS011;59925;52.136;5.420;2022-10-31T01:09:35;12.93;;;5.35;;
72060;SDS011;59925;52.136;5.420;2022-10-31T01:12:01;8.57;;;5.10;;
72060;SDS011;59925;52.136;5.420;2022-10-31T01:14:27;15.00;;;6.18;;
72060;SDS011;59925;52.136;5.420;2022-10-31T01:16:54;10.27;;;6.20;;
72060;SDS011;59925;52.136;5.420;2022-10-31T01:19:20;11.38;;;5.70;;
72060;SDS011;59925;52.136;5.420;2022-10-31T01:21:46;10.73;;;5.75;;
72060;SDS011;59925;52.136;5.420;2022-10-31T01:24:13;12.03;;;5.60;;
72060;SDS011;59925;52.136;5.420;2022-10-31T01:26:39;10.18;;;5.85;;
72060;SDS011;59925;52.136;5.420;2022-10-31T01:29:06;11.38;;;6.18;;
72060;SDS011;59925;52.136;5.420;2022-10-31T01:31:35;10.68;;;6.40;;
72060;SDS011;59925;52.136;5.420;2022-10-31T01:34:03;10.63;;;5.20;;
72060;SDS011;59925;52.136;5.420;2022-10-31T01:36:31;9.30;;;5.60;;
72060;SDS011;59925;52.136;5.420;2022-10-31T01:39:05;12.40;;;6.05;;
72060;SDS011;59925;52.136;5.420;2022-10-31T01:41:35;9.50;;;5.60;;
72060;SDS011;59925;52.136;5.420;2022-10-31T01:46:50;10.35;;;5.38;;
72060;SDS011;59925;52.136;5.420;2022-10-31T01:51:59;11.05;;;5.35;;
72060;SDS011;59925;52.136;5.420;2022-10-31T01:54:34;10.27;;;5.45;;
72060;SDS011;59925;52.136;5.420;2022-10-31T01:57:05;12.55;;;5.63;;
72060;SDS011;59925;52.136;5.420;2022-10-31T01:59:35;8.93;;;5.95;;
72060;SDS011;59925;52.136;5.420;2022-10-31T02:02:06;12.47;;;6.03;;
72060;SDS011;59925;52.136;5.420;2022-10-31T02:04:33;12.50;;;5.75;;
72060;SDS011;59925;52.136;5.420;2022-10-31T02:07:02;10.32;;;5.65;;
72060;SDS011;59925;52.136;5.420;2022-10-31T02:09:33;11.85;;;5.43;;
72060;SDS011;59925;52.136;5.420;2022-10-31T02:12:00;8.45;;;5.07;;
72060;SDS011;59925;52.136;5.420;2022-10-31T02:14:28;9.57;;;5.13;;
72060;SDS011;59925;52.136;5.420;2022-10-31T02:16:56;9.57;;;4.68;;
72060;SDS011;59925;52.136;5.420;2022-10-31T02:19:35;11.50;;;4.38;;
72060;SDS011;59925;52.136;5.420;2022-10-31T02:22:16;9.15;;;4.63;;
72060;SDS011;59925;52.136;5.420;2022-10-31T02:25:21;7.97;;;4.30;;
72060;SDS011;59925;52.136;5.420;2022-10-31T02:33:43;9.63;;;4.43;;
72060;SDS011;59925;52.136;5.420;2022-10-31T02:36:56;9.82;;;4.65;;
72060;SDS011;59925;52.136;5.420;2022-10-31T02:39:32;9.43;;;5.03;;
72060;SDS011;59925;52.136;5.420;2022-10-31T02:44:44;11.60;;;5.43;;
72060;SDS011;59925;52.136;5.420;2022-10-31T02:47:23;12.30;;;5.35;;
72060;SDS011;59925;52.136;5.420;2022-10-31T02:49:55;8.45;;;5.30;;
72060;SDS011;59925;52.136;5.420;2022-10-31T02:52:27;8.68;;;4.47;;
72060;SDS011;59925;52.136;5.420;2022-10-31T02:54:55;6.60;;;4.17;;
72060;SDS011;59925;52.136;5.420;2022-10-31T02:57:29;11.45;;;5.25;;
72060;SDS011;59925;52.136;5.420;2022-10-31T03:00:03;9.45;;;4.97;;
72060;SDS011;59925;52.136;5.420;2022-10-31T03:05:26;10.55;;;5.05;;
72060;SDS011;59925;52.136;5.420;2022-10-31T03:10:59;9.13;;;4.30;;
72060;SDS011;59925;52.136;5.420;2022-10-31T03:24:08;6.57;;;4.00;;
72060;SDS011;59925;52.136;5.420;2022-10-31T03:26:36;5.90;;;3.60;;
72060;SDS011;59925;52.136;5.420;2022-10-31T03:29:08;6.95;;;4.10;;
72060;SDS011;59925;52.136;5.420;2022-10-31T03:31:38;5.70;;;3.92;;
72060;SDS011;59925;52.136;5.420;2022-10-31T03:34:11;6.60;;;3.70;;
72060;SDS011;59925;52.136;5.420;2022-10-31T03:36:38;6.25;;;3.92;;
72060;SDS011;59925;52.136;5.420;2022-10-31T03:39:08;7.38;;;4.30;;
72060;SDS011;59925;52.136;5.420;2022-10-31T03:41:41;10.60;;;4.90;;
72060;SDS011;59925;52.136;5.420;2022-10-31T03:44:14;8.68;;;4.05;;
72060;SDS011;59925;52.136;5.420;2022-10-31T03:46:43;10.50;;;4.63;;
72060;SDS011;59925;52.136;5.420;2022-10-31T03:49:10;7.30;;;4.43;;
72060;SDS011;59925;52.136;5.420;2022-10-31T03:51:48;7.68;;;4.20;;
72060;SDS011;59925;52.136;5.420;2022-10-31T03:59:46;7.27;;;3.70;;
72060;SDS011;59925;52.136;5.420;2022-10-31T04:02:18;5.50;;;3.50;;
72060;SDS011;59925;52.136;5.420;2022-10-31T04:04:49;6.53;;;3.95;;
72060;SDS011;59925;52.136;5.420;2022-10-31T04:07:17;7.25;;;4.55;;
72060;SDS011;59925;52.136;5.420;2022-10-31T04:09:46;8.05;;;3.60;;
72060;SDS011;59925;52.136;5.420;2022-10-31T04:12:15;7.13;;;3.60;;
72060;SDS011;59925;52.136;5.420;2022-10-31T04:14:43;9.05;;;4.55;;
72060;SDS011;59925;52.136;5.420;2022-10-31T04:17:14;5.43;;;3.33;;
72060;SDS011;59925;52.136;5.420;2022-10-31T04:19:43;6.85;;;3.80;;
72060;SDS011;59925;52.136;5.420;2022-10-31T04:22:09;6.22;;;4.00;;
72060;SDS011;59925;52.136;5.420;2022-10-31T04:24:37;6.27;;;3.40;;
72060;SDS011;59925;52.136;5.420;2022-10-31T04:27:05;6.65;;;3.60;;
72060;SDS011;59925;52.136;5.420;2022-10-31T04:29:32;7.03;;;4.00;;
72060;SDS011;59925;52.136;5.420;2022-10-31T04:31:58;5.68;;;3.25;;
72060;SDS011;59925;52.136;5.420;2022-10-31T04:34:24;6.97;;;3.60;;
72060;SDS011;59925;52.136;5.420;2022-10-31T04:36:51;9.70;;;3.87;;
72060;SDS011;59925;52.136;5.420;2022-10-31T04:39:17;10.23;;;4.88;;
72060;SDS011;59925;52.136;5.420;2022-10-31T04:41:51;8.10;;;4.43;;
72060;SDS011;59925;52.136;5.420;2022-10-31T04:44:18;7.68;;;4.03;;
72060;SDS011;59925;52.136;5.420;2022-10-31T04:46:44;7.43;;;3.90;;
72060;SDS011;59925;52.136;5.420;2022-10-31T04:49:10;6.30;;;3.60;;
72060;SDS011;59925;52.136;5.420;2022-10-31T04:51:37;7.80;;;3.97;;
72060;SDS011;59925;52.136;5.420;2022-10-31T04:54:03;8.82;;;4.40;;
72060;SDS011;59925;52.136;5.420;2022-10-31T04:56:30;7.88;;;3.78;;
72060;SDS011;59925;52.136;5.420;2022-10-31T04:58:56;8.63;;;4.15;;
72060;SDS011;59925;52.136;5.420;2022-10-31T05:01:23;6.37;;;3.70;;
72060;SDS011;59925;52.136;5.420;2022-10-31T05:03:49;6.97;;;4.18;;
72060;SDS011;59925;52.136;5.420;2022-10-31T05:06:15;6.55;;;4.03;;
72060;SDS011;59925;52.136;5.420;2022-10-31T05:08:42;5.65;;;3.83;;
72060;SDS011;59925;52.136;5.420;2022-10-31T05:11:08;8.95;;;4.05;;
72060;SDS011;59925;52.136;5.420;2022-10-31T05:13:35;7.33;;;4.00;;
72060;SDS011;59925;52.136;5.420;2022-10-31T05:16:01;6.88;;;3.88;;
72060;SDS011;59925;52.136;5.420;2022-10-31T05:18:28;7.90;;;4.22;;
72060;SDS011;59925;52.136;5.420;2022-10-31T05:20:55;7.47;;;3.63;;
72060;SDS011;59925;52.136;5.420;2022-10-31T05:23:21;6.05;;;3.83;;
72060;SDS011;59925;52.136;5.420;2022-10-31T05:25:47;6.67;;;3.57;;
72060;SDS011;59925;52.136;5.420;2022-10-31T05:28:14;7.72;;;3.60;;
72060;SDS011;59925;52.136;5.420;2022-10-31T05:30:40;7.32;;;3.92;;
72060;SDS011;59925;52.136;5.420;2022-10-31T05:33:06;9.45;;;3.60;;
72060;SDS011;59925;52.136;5.420;2022-10-31T05:35:33;7.25;;;3.88;;
72060;SDS011;59925;52.136;5.420;2022-10-31T05:37:59;8.13;;;3.50;;
72060;SDS011;59925;52.136;5.420;2022-10-31T05:40:26;7.25;;;4.20;;
72060;SDS011;59925;52.136;5.420;2022-10-31T05:42:54;8.88;;;4.47;;
72060;SDS011;59925;52.136;5.420;2022-10-31T05:45:22;24.42;;;4.75;;
72060;SDS011;59925;52.136;5.420;2022-10-31T05:47:56;11.07;;;4.78;;
72060;SDS011;59925;52.136;5.420;2022-10-31T05:50:24;24.57;;;6.17;;
72060;SDS011;59925;52.136;5.420;2022-10-31T05:52:59;22.55;;;5.78;;
72060;SDS011;59925;52.136;5.420;2022-10-31T05:55:27;16.38;;;5.13;;
72060;SDS011;59925;52.136;5.420;2022-10-31T05:57:54;16.50;;;5.60;;
72060;SDS011;59925;52.136;5.420;2022-10-31T06:00:21;24.73;;;6.38;;
72060;SDS011;59925;52.136;5.420;2022-10-31T06:02:48;36.40;;;8.07;;
72060;SDS011;59925;52.136;5.420;2022-10-31T06:05:15;38.70;;;6.38;;
72060;SDS011;59925;52.136;5.420;2022-10-31T06:07:42;24.80;;;6.03;;
72060;SDS011;59925;52.136;5.420;2022-10-31T06:10:08;23.05;;;5.90;;
72060;SDS011;59925;52.136;5.420;2022-10-31T06:12:35;26.15;;;6.35;;
72060;SDS011;59925;52.136;5.420;2022-10-31T06:15:07;21.87;;;5.53;;
72060;SDS011;59925;52.136;5.420;2022-10-31T06:17:34;14.18;;;5.20;;
72060;SDS011;59925;52.136;5.420;2022-10-31T06:20:00;19.70;;;5.80;;
72060;SDS011;59925;52.136;5.420;2022-10-31T06:22:27;30.23;;;5.63;;
72060;SDS011;59925;52.136;5.420;2022-10-31T06:24:54;36.92;;;5.88;;
72060;SDS011;59925;52.136;5.420;2022-10-31T06:27:20;18.60;;;5.30;;
72060;SDS011;59925;52.136;5.420;2022-10-31T06:29:47;26.42;;;5.30;;
72060;SDS011;59925;52.136;5.420;2022-10-31T06:32:13;20.98;;;5.45;;
72060;SDS011;59925;52.136;5.420;2022-10-31T06:34:40;11.23;;;4.80;;
72060;SDS011;59925;52.136;5.420;2022-10-31T06:37:08;19.20;;;4.90;;
72060;SDS011;59925;52.136;5.420;2022-10-31T06:39:35;17.27;;;4.83;;
72060;SDS011;59925;52.136;5.420;2022-10-31T06:42:02;12.18;;;4.68;;
72060;SDS011;59925;52.136;5.420;2022-10-31T06:44:29;13.52;;;4.47;;
72060;SDS011;59925;52.136;5.420;2022-10-31T06:46:56;12.27;;;5.30;;
72060;SDS011;59925;52.136;5.420;2022-10-31T06:49:22;17.27;;;4.60;;
72060;SDS011;59925;52.136;5.420;2022-10-31T06:51:48;16.80;;;5.03;;
72060;SDS011;59925;52.136;5.420;2022-10-31T06:54:15;22.85;;;5.07;;
72060;SDS011;59925;52.136;5.420;2022-10-31T06:56:42;17.30;;;4.88;;
72060;SDS011;59925;52.136;5.420;2022-10-31T06:59:12;11.25;;;5.00;;
72060;SDS011;59925;52.136;5.420;2022-10-31T07:01:39;22.13;;;5.38;;
72060;SDS011;59925;52.136;5.420;2022-10-31T07:04:05;23.97;;;4.60;;
72060;SDS011;59925;52.136;5.420;2022-10-31T07:06:32;17.45;;;4.53;;
72060;SDS011;59925;52.136;5.420;2022-10-31T07:08:58;20.00;;;5.18;;
72060;SDS011;59925;52.136;5.420;2022-10-31T07:11:24;23.95;;;5.35;;
72060;SDS011;59925;52.136;5.420;2022-10-31T07:13:51;17.17;;;5.00;;
72060;SDS011;59925;52.136;5.420;2022-10-31T07:16:17;25.80;;;5.20;;
72060;SDS011;59925;52.136;5.420;2022-10-31T07:18:43;14.52;;;4.97;;
72060;SDS011;59925;52.136;5.420;2022-10-31T07:21:10;26.10;;;5.45;;
72060;SDS011;59925;52.136;5.420;2022-10-31T07:23:36;15.20;;;5.13;;
72060;SDS011;59925;52.136;5.420;2022-10-31T07:26:03;25.98;;;5.80;;
72060;SDS011;59925;52.136;5.420;2022-10-31T07:28:29;15.87;;;5.67;;
72060;SDS011;59925;52.136;5.420;2022-10-31T07:30:56;29.65;;;6.70;;
72060;SDS011;59925;52.136;5.420;2022-10-31T07:33:23;14.07;;;6.15;;
72060;SDS011;59925;52.136;5.420;2022-10-31T07:35:53;16.40;;;5.93;;
72060;SDS011;59925;52.136;5.420;2022-10-31T07:38:20;34.65;;;7.63;;
72060;SDS011;59925;52.136;5.420;2022-10-31T07:40:49;30.10;;;6.70;;
72060;SDS011;59925;52.136;5.420;2022-10-31T07:43:17;24.23;;;5.35;;
72060;SDS011;59925;52.136;5.420;2022-10-31T07:45:48;10.35;;;5.88;;
72060;SDS011;59925;52.136;5.420;2022-10-31T07:48:15;12.45;;;5.07;;
72060;SDS011;59925;52.136;5.420;2022-10-31T07:50:42;11.55;;;5.55;;
72060;SDS011;59925;52.136;5.420;2022-10-31T07:53:09;18.97;;;5.50;;
72060;SDS011;59925;52.136;5.420;2022-10-31T07:55:37;16.23;;;5.40;;
72060;SDS011;59925;52.136;5.420;2022-10-31T07:58:11;12.38;;;5.70;;
72060;SDS011;59925;52.136;5.420;2022-10-31T08:00:39;16.00;;;6.20;;
72060;SDS011;59925;52.136;5.420;2022-10-31T08:03:09;17.48;;;6.35;;
72060;SDS011;59925;52.136;5.420;2022-10-31T08:05:37;16.67;;;6.47;;
72060;SDS011;59925;52.136;5.420;2022-10-31T08:08:04;11.32;;;5.03;;
72060;SDS011;59925;52.136;5.420;2022-10-31T08:10:31;10.73;;;5.60;;
72060;SDS011;59925;52.136;5.420;2022-10-31T08:13:02;10.95;;;5.35;;
72060;SDS011;59925;52.136;5.420;2022-10-31T08:15:31;10.70;;;5.45;;
72060;SDS011;59925;52.136;5.420;2022-10-31T08:17:59;13.47;;;5.97;;
72060;SDS011;59925;52.136;5.420;2022-10-31T08:20:26;12.00;;;6.20;;
72060;SDS011;59925;52.136;5.420;2022-10-31T08:22:57;15.82;;;6.32;;
72060;SDS011;59925;52.136;5.420;2022-10-31T08:25:25;14.23;;;6.40;;
72060;SDS011;59925;52.136;5.420;2022-10-31T08:27:57;16.75;;;7.28;;
72060;SDS011;59925;52.136;5.420;2022-10-31T08:30:25;13.60;;;8.37;;
72060;SDS011;59925;52.136;5.420;2022-10-31T08:33:10;11.55;;;8.23;;
72060;SDS011;59925;52.136;5.420;2022-10-31T08:35:37;14.80;;;8.80;;
72060;SDS011;59925;52.136;5.420;2022-10-31T08:38:04;13.32;;;8.48;;
72060;SDS011;59925;52.136;5.420;2022-10-31T08:40:32;15.02;;;8.60;;
72060;SDS011;59925;52.136;5.420;2022-10-31T08:42:59;19.67;;;8.67;;
72060;SDS011;59925;52.136;5.420;2022-10-31T08:45:28;16.85;;;9.93;;
72060;SDS011;59925;52.136;5.420;2022-10-31T08:47:59;13.77;;;8.95;;
72060;SDS011;59925;52.136;5.420;2022-10-31T08:50:27;14.48;;;8.98;;
72060;SDS011;59925;52.136;5.420;2022-10-31T08:53:05;15.13;;;9.27;;
72060;SDS011;59925;52.136;5.420;2022-10-31T08:55:34;13.80;;;8.83;;
72060;SDS011;59925;52.136;5.420;2022-10-31T08:58:02;14.55;;;8.90;;
72060;SDS011;59925;52.136;5.420;2022-10-31T09:00:29;15.43;;;8.75;;
72060;SDS011;59925;52.136;5.420;2022-10-31T09:02:56;15.05;;;9.43;;
72060;SDS011;59925;52.136;5.420;2022-10-31T09:05:24;15.48;;;9.88;;
72060;SDS011;59925;52.136;5.420;2022-10-31T09:07:51;19.03;;;10.67;;
72060;SDS011;59925;52.136;5.420;2022-10-31T09:10:21;15.68;;;10.30;;
72060;SDS011;59925;52.136;5.420;2022-10-31T09:12:47;19.95;;;11.65;;
72060;SDS011;59925;52.136;5.420;2022-10-31T09:15:24;19.48;;;10.82;;
72060;SDS011;59925;52.136;5.420;2022-10-31T09:17:52;16.38;;;10.80;;
72060;SDS011;59925;52.136;5.420;2022-10-31T09:20:18;17.43;;;11.63;;
72060;SDS011;59925;52.136;5.420;2022-10-31T09:22:45;20.67;;;12.88;;
72060;SDS011;59925;52.136;5.420;2022-10-31T09:25:12;29.75;;;12.35;;
72060;SDS011;59925;52.136;5.420;2022-10-31T09:27:38;16.80;;;10.70;;
72060;SDS011;59925;52.136;5.420;2022-10-31T09:30:05;16.48;;;11.15;;
72060;SDS011;59925;52.136;5.420;2022-10-31T09:32:32;15.63;;;10.63;;
72060;SDS011;59925;52.136;5.420;2022-10-31T09:34:58;14.82;;;10.52;;
72060;SDS011;59925;52.136;5.420;2022-10-31T09:37:24;17.17;;;11.13;;
72060;SDS011;59925;52.136;5.420;2022-10-31T09:39:51;16.33;;;10.93;;
72060;SDS011;59925;52.136;5.420;2022-10-31T09:45:21;17.50;;;10.77;;
72060;SDS011;59925;52.136;5.420;2022-10-31T09:50:44;15.32;;;10.77;;
72060;SDS011;59925;52.136;5.420;2022-10-31T09:53:26;20.48;;;12.00;;
72060;SDS011;59925;52.136;5.420;2022-10-31T09:55:57;15.90;;;11.20;;
72060;SDS011;59925;52.136;5.420;2022-10-31T09:58:28;17.60;;;11.10;;
72060;SDS011;59925;52.136;5.420;2022-10-31T10:01:00;20.90;;;11.80;;
72060;SDS011;59925;52.136;5.420;2022-10-31T10:03:31;17.90;;;11.23;;
72060;SDS011;59925;52.136;5.420;2022-10-31T10:08:45;19.77;;;11.73;;
72060;SDS011;59925;52.136;5.420;2022-10-31T10:14:26;17.20;;;12.10;;
72060;SDS011;59925;52.136;5.420;2022-10-31T10:30:42;21.73;;;11.75;;
72060;SDS011;59925;52.136;5.420;2022-10-31T10:33:18;19.45;;;11.70;;
72060;SDS011;59925;52.136;5.420;2022-10-31T10:35:52;17.52;;;11.10;;
72060;SDS011;59925;52.136;5.420;2022-10-31T10:38:38;15.13;;;10.13;;
72060;SDS011;59925;52.136;5.420;2022-10-31T10:41:16;16.52;;;10.13;;
72060;SDS011;59925;52.136;5.420;2022-10-31T10:43:48;20.95;;;11.02;;
72060;SDS011;59925;52.136;5.420;2022-10-31T10:46:19;18.33;;;10.73;;
72060;SDS011;59925;52.136;5.420;2022-10-31T10:52:30;14.07;;;10.17;;
72060;SDS011;59925;52.136;5.420;2022-10-31T10:55:23;17.20;;;9.45;;
72060;SDS011;59925;52.136;5.420;2022-10-31T10:58:03;16.98;;;9.25;;
72060;SDS011;59925;52.136;5.420;2022-10-31T11:03:13;16.20;;;8.95;;
72060;SDS011;59925;52.136;5.420;2022-10-31T11:08:24;16.27;;;8.40;;
72060;SDS011;59925;52.136;5.420;2022-10-31T11:13:44;15.40;;;8.07;;
72060;SDS011;59925;52.136;5.420;2022-10-31T11:16:15;16.23;;;8.60;;
72060;SDS011;59925;52.136;5.420;2022-10-31T11:18:52;15.07;;;8.23;;
72060;SDS011;59925;52.136;5.420;2022-10-31T11:21:20;18.77;;;8.55;;
72060;SDS011;59925;52.136;5.420;2022-10-31T11:26:34;17.20;;;8.48;;
72060;SDS011;59925;52.136;5.420;2022-10-31T11:29:04;13.95;;;7.95;;
72060;SDS011;59925;52.136;5.420;2022-10-31T11:31:32;16.13;;;8.83;;
72060;SDS011;59925;52.136;5.420;2022-10-31T11:34:01;18.35;;;8.55;;
72060;SDS011;59925;52.136;5.420;2022-10-31T11:36:38;18.13;;;8.32;;
72060;SDS011;59925;52.136;5.420;2022-10-31T11:39:22;19.08;;;8.73;;
72060;SDS011;59925;52.136;5.420;2022-10-31T11:41:50;17.17;;;8.88;;
72060;SDS011;59925;52.136;5.420;2022-10-31T11:46:58;19.13;;;9.90;;
72060;SDS011;59925;52.136;5.420;2022-10-31T11:52:08;18.73;;;10.20;;
72060;SDS011;59925;52.136;5.420;2022-10-31T11:54:52;17.85;;;9.90;;
72060;SDS011;59925;52.136;5.420;2022-10-31T11:57:25;19.73;;;10.23;;
72060;SDS011;59925;52.136;5.420;2022-10-31T11:59:58;19.95;;;10.45;;
72060;SDS011;59925;52.136;5.420;2022-10-31T12:02:32;21.33;;;9.88;;
72060;SDS011;59925;52.136;5.420;2022-10-31T12:05:07;24.17;;;11.40;;
72060;SDS011;59925;52.136;5.420;2022-10-31T12:07:43;23.40;;;11.80;;
72060;SDS011;59925;52.136;5.420;2022-10-31T12:10:10;23.50;;;12.00;;
72060;SDS011;59925;52.136;5.420;2022-10-31T12:12:45;22.00;;;11.27;;
72060;SDS011;59925;52.136;5.420;2022-10-31T12:15:31;19.85;;;10.88;;
72060;SDS011;59925;52.136;5.420;2022-10-31T12:23:47;23.37;;;11.20;;
72060;SDS011;59925;52.136;5.420;2022-10-31T12:26:23;24.90;;;11.93;;
72060;SDS011;59925;52.136;5.420;2022-10-31T12:31:40;27.95;;;12.57;;
72060;SDS011;59925;52.136;5.420;2022-10-31T12:40:09;25.00;;;11.63;;
72060;SDS011;59925;52.136;5.420;2022-10-31T12:53:56;23.88;;;10.77;;
72060;SDS011;59925;52.136;5.420;2022-10-31T12:57:27;24.83;;;11.63;;
72060;SDS011;59925;52.136;5.420;2022-10-31T12:59:47;25.05;;;11.50;;
72060;SDS011;59925;52.136;5.420;2022-10-31T13:02:30;26.05;;;11.30;;
72060;SDS011;59925;52.136;5.420;2022-10-31T13:05:05;22.13;;;11.10;;
72060;SDS011;59925;52.136;5.420;2022-10-31T13:07:41;28.77;;;11.93;;
72060;SDS011;59925;52.136;5.420;2022-10-31T13:10:19;22.58;;;11.32;;
72060;SDS011;59925;52.136;5.420;2022-10-31T13:12:51;22.73;;;11.13;;
72060;SDS011;59925;52.136;5.420;2022-10-31T13:15:26;24.67;;;10.88;;
72060;SDS011;59925;52.136;5.420;2022-10-31T13:17:56;25.10;;;10.83;;
72060;SDS011;59925;52.136;5.420;2022-10-31T13:20:27;24.05;;;11.65;;
72060;SDS011;59925;52.136;5.420;2022-10-31T13:23:04;25.15;;;11.95;;
72060;SDS011;59925;52.136;5.420;2022-10-31T13:25:56;24.77;;;11.98;;
72060;SDS011;59925;52.136;5.420;2022-10-31T13:28:28;25.30;;;12.95;;
72060;SDS011;59925;52.136;5.420;2022-10-31T13:31:02;24.97;;;12.67;;
72060;SDS011;59925;52.136;5.420;2022-10-31T13:33:29;24.92;;;12.45;;
72060;SDS011;59925;52.136;5.420;2022-10-31T13:44:24;29.00;;;12.47;;
72060;SDS011;59925;52.136;5.420;2022-10-31T13:46:54;30.20;;;13.60;;
72060;SDS011;59925;52.136;5.420;2022-10-31T13:54:36;30.10;;;13.93;;
72060;SDS011;59925;52.136;5.420;2022-10-31T13:57:22;28.87;;;13.67;;
72060;SDS011;59925;52.136;5.420;2022-10-31T14:02:56;27.73;;;12.93;;
72060;SDS011;59925;52.136;5.420;2022-10-31T14:05:33;25.63;;;12.60;;
72060;SDS011;59925;52.136;5.420;2022-10-31T14:08:02;26.67;;;13.20;;
72060;SDS011;59925;52.136;5.420;2022-10-31T14:13:20;29.55;;;13.35;;
72060;SDS011;59925;52.136;5.420;2022-10-31T14:18:36;28.67;;;13.52;;
72060;SDS011;59925;52.136;5.420;2022-10-31T14:21:15;29.17;;;13.57;;
72060;SDS011;59925;52.136;5.420;2022-10-31T14:23:41;28.53;;;13.20;;
72060;SDS011;59925;52.136;5.420;2022-10-31T14:28:45;30.95;;;13.13;;
72060;SDS011;59925;52.136;5.420;2022-10-31T14:31:26;25.83;;;13.32;;
72060;SDS011;59925;52.136;5.420;2022-10-31T14:37:10;29.63;;;13.50;;
72060;SDS011;59925;52.136;5.420;2022-10-31T14:45:55;27.50;;;12.80;;
72060;SDS011;59925;52.136;5.420;2022-10-31T14:51:42;30.10;;;13.67;;
72060;SDS011;59925;52.136;5.420;2022-10-31T14:54:12;23.77;;;13.82;;
72060;SDS011;59925;52.136;5.420;2022-10-31T14:56:55;29.48;;;13.35;;
72060;SDS011;59925;52.136;5.420;2022-10-31T14:59:26;25.63;;;13.18;;
72060;SDS011;59925;52.136;5.420;2022-10-31T15:01:57;29.98;;;12.90;;
72060;SDS011;59925;52.136;5.420;2022-10-31T15:04:28;28.07;;;13.90;;
72060;SDS011;59925;52.136;5.420;2022-10-31T15:09:56;29.85;;;14.38;;
72060;SDS011;59925;52.136;5.420;2022-10-31T15:12:33;27.45;;;13.43;;
72060;SDS011;59925;52.136;5.420;2022-10-31T15:15:20;27.33;;;13.13;;
72060;SDS011;59925;52.136;5.420;2022-10-31T15:17:49;28.37;;;13.10;;
72060;SDS011;59925;52.136;5.420;2022-10-31T15:20:22;33.33;;;14.00;;
72060;SDS011;59925;52.136;5.420;2022-10-31T15:22:52;28.13;;;13.32;;
72060;SDS011;59925;52.136;5.420;2022-10-31T15:25:22;29.27;;;12.45;;
72060;SDS011;59925;52.136;5.420;2022-10-31T15:27:51;29.10;;;13.75;;
72060;SDS011;59925;52.136;5.420;2022-10-31T15:30:22;30.03;;;12.73;;
72060;SDS011;59925;52.136;5.420;2022-10-31T15:32:50;26.08;;;13.00;;
72060;SDS011;59925;52.136;5.420;2022-10-31T15:35:25;24.13;;;12.68;;
72060;SDS011;59925;52.136;5.420;2022-10-31T15:37:53;26.95;;;13.52;;
72060;SDS011;59925;52.136;5.420;2022-10-31T15:40:22;35.42;;;14.32;;
72060;SDS011;59925;52.136;5.420;2022-10-31T15:42:54;30.13;;;13.13;;
72060;SDS011;59925;52.136;5.420;2022-10-31T15:45:27;26.08;;;12.30;;
72060;SDS011;59925;52.136;5.420;2022-10-31T15:48:00;30.83;;;13.45;;
72060;SDS011;59925;52.136;5.420;2022-10-31T15:50:37;28.27;;;13.00;;
72060;SDS011;59925;52.136;5.420;2022-10-31T15:53:13;28.02;;;13.32;;
72060;SDS011;59925;52.136;5.420;2022-10-31T15:56:05;31.90;;;12.53;;
72060;SDS011;59925;52.136;5.420;2022-10-31T15:58:39;24.85;;;12.82;;
72060;SDS011;59925;52.136;5.420;2022-10-31T16:01:20;28.73;;;12.93;;
72060;SDS011;59925;52.136;5.420;2022-10-31T16:06:38;24.58;;;12.27;;
72060;SDS011;59925;52.136;5.420;2022-10-31T16:09:18;24.70;;;12.23;;
72060;SDS011;59925;52.136;5.420;2022-10-31T16:11:47;27.20;;;12.52;;
72060;SDS011;59925;52.136;5.420;2022-10-31T16:14:15;27.02;;;12.52;;
72060;SDS011;59925;52.136;5.420;2022-10-31T16:16:52;26.02;;;11.77;;
72060;SDS011;59925;52.136;5.420;2022-10-31T16:19:21;28.00;;;12.85;;
72060;SDS011;59925;52.136;5.420;2022-10-31T16:22:02;23.43;;;11.27;;
72060;SDS011;59925;52.136;5.420;2022-10-31T16:24:32;25.20;;;12.82;;
72060;SDS011;59925;52.136;5.420;2022-10-31T16:27:04;27.90;;;12.13;;
72060;SDS011;59925;52.136;5.420;2022-10-31T16:29:34;28.42;;;13.23;;
72060;SDS011;59925;52.136;5.420;2022-10-31T16:32:22;29.10;;;11.52;;
72060;SDS011;59925;52.136;5.420;2022-10-31T16:35:16;23.27;;;11.37;;
72060;SDS011;59925;52.136;5.420;2022-10-31T16:37:43;28.65;;;12.55;;
72060;SDS011;59925;52.136;5.420;2022-10-31T16:40:10;27.48;;;12.10;;
72060;SDS011;59925;52.136;5.420;2022-10-31T16:42:41;26.15;;;11.77;;
72060;SDS011;59925;52.136;5.420;2022-10-31T16:45:13;25.45;;;11.35;;
72060;SDS011;59925;52.136;5.420;2022-10-31T16:47:42;26.47;;;12.03;;
72060;SDS011;59925;52.136;5.420;2022-10-31T16:50:12;28.48;;;11.88;;
72060;SDS011;59925;52.136;5.420;2022-10-31T16:52:40;26.48;;;12.07;;
72060;SDS011;59925;52.136;5.420;2022-10-31T16:55:27;23.92;;;12.40;;
72060;SDS011;59925;52.136;5.420;2022-10-31T16:57:54;25.88;;;11.38;;
72060;SDS011;59925;52.136;5.420;2022-10-31T17:00:22;27.17;;;11.33;;
72060;SDS011;59925;52.136;5.420;2022-10-31T17:02:51;24.63;;;12.07;;
72060;SDS011;59925;52.136;5.420;2022-10-31T17:05:20;29.60;;;12.10;;
72060;SDS011;59925;52.136;5.420;2022-10-31T17:07:47;27.45;;;12.40;;
72060;SDS011;59925;52.136;5.420;2022-10-31T17:10:14;28.33;;;13.15;;
72060;SDS011;59925;52.136;5.420;2022-10-31T17:12:43;31.10;;;13.37;;
72060;SDS011;59925;52.136;5.420;2022-10-31T17:15:22;34.10;;;12.88;;
72060;SDS011;59925;52.136;5.420;2022-10-31T17:17:51;30.15;;;13.52;;
72060;SDS011;59925;52.136;5.420;2022-10-31T17:20:27;32.15;;;13.70;;
72060;SDS011;59925;52.136;5.420;2022-10-31T17:22:55;28.65;;;13.93;;